Time;durP1;ratioP1;P1;durP2;ratioP2;P2;SDS_P1;SDS_P2;PMS_P1;PMS_P2;Temp;Humidity;BMP_temperature;BMP_pressure;BME280_temperature;BME280_humidity;BME280_pressure;Samples;Min_cycle;Max_cycle;Signal;HPM_P1;HPM_P2
2023/05/22 00:01:07;;;;;;;13.68;9.55;;;;;17.90;96078.00;;;;8430986;28;20719;-63
2023/05/22 00:05:11;;;;;;;13.82;9.25;;;;;17.90;96078.00;;;;8430309;28;20222;-62
2023/05/22 00:09:16;;;;;;;17.75;10.52;;;;;17.70;96070.00;;;;8436644;28;20563;-62
2023/05/22 00:13:24;;;;;;;18.40;9.95;;;;;17.70;96064.00;;;;8434776;28;20203;-62
2023/05/22 00:17:29;;;;;;;17.95;9.48;;;;;17.70;96065.00;;;;8437145;28;20234;-63
2023/05/22 00:21:33;;;;;;;15.30;9.48;;;;;17.70;96068.00;;;;8435115;28;20282;-63
2023/05/22 00:25:42;;;;;;;14.52;9.98;;;;;17.60;96057.00;;;;8435250;28;20203;-62
2023/05/22 00:29:45;;;;;;;14.00;9.70;;;;;17.60;96063.00;;;;8436152;28;20262;-62
2023/05/22 00:33:48;;;;;;;16.25;9.77;;;;;17.60;96072.00;;;;8436132;28;20238;-63
2023/05/22 00:37:52;;;;;;;14.23;9.82;;;;;17.50;96060.00;;;;8418510;28;20235;-63
2023/05/22 00:41:56;;;;;;;17.63;10.10;;;;;17.50;96058.00;;;;8435233;28;20278;-62
2023/05/22 00:45:59;;;;;;;14.68;9.90;;;;;17.50;96063.00;;;;8435609;28;20297;-63
2023/05/22 00:50:05;;;;;;;12.15;8.88;;;;;17.50;96056.00;;;;8431985;28;20227;-62
2023/05/22 00:54:10;;;;;;;22.13;10.10;;;;;17.40;96050.00;;;;8436189;28;20659;-62
2023/05/22 00:58:18;;;;;;;12.43;9.05;;;;;17.30;96055.00;;;;8435384;28;20191;-62
2023/05/22 01:02:21;;;;;;;15.85;9.95;;;;;17.30;96062.00;;;;8434295;28;20306;-63
2023/05/22 01:06:26;;;;;;;16.65;10.27;;;;;17.30;96049.00;;;;8435544;28;20199;-63
2023/05/22 01:10:30;;;;;;;15.88;9.13;;;;;17.30;96056.00;;;;8434000;28;20215;-62
2023/05/22 01:14:47;;;;;;;15.07;10.20;;;;;17.30;96056.00;;;;8434133;28;20282;-62
2023/05/22 01:19:01;;;;;;;14.45;9.20;;;;;17.20;96056.00;;;;8433792;28;20234;-62
2023/05/22 01:23:43;;;;;;;11.85;9.07;;;;;17.10;96055.00;;;;8433661;28;20662;-62
2023/05/22 01:28:02;;;;;;;13.65;9.65;;;;;17.10;96053.00;;;;8434200;28;20601;-63
2023/05/22 01:32:11;;;;;;;14.20;10.45;;;;;17.00;96054.00;;;;8434311;28;20226;-63
2023/05/22 01:36:19;;;;;;;13.80;9.48;;;;;17.00;96058.00;;;;8434593;28;20274;-63
2023/05/22 01:40:22;;;;;;;15.40;10.13;;;;;16.90;96060.00;;;;8434665;28;20579;-62
2023/05/22 01:44:27;;;;;;;16.55;9.48;;;;;16.90;96059.00;;;;8415519;28;20191;-62
2023/05/22 01:48:33;;;;;;;15.00;10.05;;;;;16.90;96058.00;;;;8432089;28;20195;-62
2023/05/22 01:52:47;;;;;;;12.85;9.20;;;;;16.80;96067.00;;;;8432155;28;20260;-62
2023/05/22 01:56:55;;;;;;;25.60;10.10;;;;;16.80;96062.00;;;;8433459;28;20221;-62
2023/05/22 02:01:02;;;;;;;14.55;10.07;;;;;16.70;96065.00;;;;8432834;28;20198;-63
2023/05/22 02:05:18;;;;;;;11.73;8.98;;;;;16.70;96066.00;;;;8433918;28;20721;-62
2023/05/22 02:09:26;;;;;;;15.35;10.13;;;;;16.60;96066.00;;;;8415319;28;20667;-62
2023/05/22 02:13:30;;;;;;;14.57;10.20;;;;;16.50;96066.00;;;;8431975;28;20196;-63
2023/05/22 02:17:39;;;;;;;15.55;9.52;;;;;16.50;96064.00;;;;8432849;28;20199;-63
2023/05/22 02:21:46;;;;;;;14.60;10.57;;;;;16.50;96050.00;;;;8413746;28;20566;-62
2023/05/22 02:25:51;;;;;;;16.00;9.60;;;;;16.40;96058.00;;;;8433411;28;20563;-62
2023/05/22 02:29:58;;;;;;;13.80;9.98;;;;;16.40;96057.00;;;;8413631;28;20203;-62
2023/05/22 02:34:05;;;;;;;16.63;10.48;;;;;16.50;96044.00;;;;8431923;28;20202;-62
2023/05/22 02:38:10;;;;;;;14.98;9.65;;;;;16.40;96044.00;;;;8432436;28;20199;-62
2023/05/22 02:42:13;;;;;;;18.58;9.95;;;;;16.30;96043.00;;;;8431151;28;20242;-62
2023/05/22 02:46:18;;;;;;;15.52;9.93;;;;;16.40;96042.00;;;;8430880;28;20231;-62
2023/05/22 02:50:24;;;;;;;15.15;10.95;;;;;16.40;96044.00;;;;8431738;28;20222;-62
2023/05/22 02:54:29;;;;;;;15.77;9.65;;;;;16.30;96043.00;;;;8431769;28;20195;-62
2023/05/22 02:58:32;;;;;;;16.70;10.00;;;;;16.20;96048.00;;;;8431696;28;20644;-62
2023/05/22 03:02:35;;;;;;;14.85;9.20;;;;;16.10;96047.00;;;;8416854;22;20232;-63
2023/05/22 03:06:39;;;;;;;14.85;10.07;;;;;16.10;96046.00;;;;8339567;28;20208;-65
2023/05/22 03:10:45;;;;;;;19.13;11.10;;;;;16.00;96045.00;;;;8349122;28;20232;-63
2023/05/22 03:14:51;;;;;;;19.80;9.68;;;;;16.00;96040.00;;;;8344751;28;20209;-64
2023/05/22 03:19:08;;;;;;;14.10;9.40;;;;;16.00;96044.00;;;;8346751;28;20250;-64
2023/05/22 03:23:14;;;;;;;14.35;10.00;;;;;16.10;96045.00;;;;8325887;28;20757;-63
2023/05/22 03:27:26;;;;;;;14.43;10.27;;;;;16.10;96034.00;;;;8342225;28;20232;-63
2023/05/22 03:31:33;;;;;;;13.88;9.50;;;;;16.10;96046.00;;;;8344063;28;20229;-64
2023/05/22 03:35:43;;;;;;;18.58;10.30;;;;;16.20;96043.00;;;;8345711;28;20791;-64
2023/05/22 03:39:47;;;;;;;17.05;10.93;;;;;16.10;96050.00;;;;8341385;28;20622;-64
2023/05/22 03:43:51;;;;;;;15.38;10.43;;;;;16.10;96051.00;;;;8348171;28;20287;-66
2023/05/22 03:47:57;;;;;;;13.10;9.82;;;;;16.20;96049.00;;;;8352419;28;21910;-63
2023/05/22 03:52:00;;;;;;;18.10;10.52;;;;;16.20;96052.00;;;;8351491;28;20256;-64
2023/05/22 03:56:06;;;;;;;15.20;10.30;;;;;16.20;96041.00;;;;8347671;28;20219;-65
2023/05/22 04:00:12;;;;;;;15.27;10.05;;;;;16.30;96054.00;;;;8342501;28;20727;-64
2023/05/22 04:04:18;;;;;;;18.02;9.63;;;;;16.30;96048.00;;;;8346519;28;20232;-64
2023/05/22 04:08:22;;;;;;;14.23;9.55;;;;;16.40;96045.00;;;;8344944;28;20279;-63
2023/05/22 04:12:28;;;;;;;15.40;9.98;;;;;16.40;96040.00;;;;8343277;28;20323;-64
2023/05/22 04:16:35;;;;;;;19.50;10.18;;;;;16.50;96047.00;;;;8336712;28;20804;-65
2023/05/22 04:20:40;;;;;;;13.90;9.73;;;;;16.50;96044.00;;;;8343901;28;20236;-63
2023/05/22 04:24:47;;;;;;;13.68;9.63;;;;;16.50;96042.00;;;;8348984;28;20684;-64
2023/05/22 04:28:51;;;;;;;14.57;10.25;;;;;16.50;96035.00;;;;8345382;28;20211;-64
2023/05/22 04:32:56;;;;;;;11.60;9.00;;;;;16.70;96043.00;;;;8336938;28;20721;-63
2023/05/22 04:37:02;;;;;;;13.80;10.00;;;;;16.90;96049.00;;;;8321961;28;20209;-64
2023/05/22 04:41:07;;;;;;;14.30;9.95;;;;;17.10;96046.00;;;;8342360;28;20783;-66
2023/05/22 04:45:13;;;;;;;15.10;9.68;;;;;17.30;96041.00;;;;8344498;28;20264;-64
2023/05/22 04:49:19;;;;;;;14.00;9.60;;;;;17.60;96047.00;;;;8347178;28;20340;-63
2023/05/22 04:53:24;;;;;;;18.80;9.50;;;;;17.90;96057.00;;;;8348387;28;20311;-64
2023/05/22 04:57:27;;;;;;;12.77;9.48;;;;;18.10;96052.00;;;;8350402;28;20197;-63
2023/05/22 05:01:30;;;;;;;19.35;9.63;;;;;18.40;96059.00;;;;8349525;28;21337;-64
2023/05/22 05:05:36;;;;;;;14.48;9.32;;;;;18.60;96052.00;;;;8347962;28;20209;-65
2023/05/22 05:09:52;;;;;;;15.23;10.13;;;;;18.70;96054.00;;;;8351933;28;20292;-63
2023/05/22 05:13:58;;;;;;;13.60;9.02;;;;;18.80;96050.00;;;;8347430;28;20232;-63
2023/05/22 05:18:06;;;;;;;13.98;9.57;;;;;18.90;96056.00;;;;8345380;28;20204;-65
2023/05/22 05:22:10;;;;;;;13.35;9.75;;;;;19.10;96051.00;;;;8345062;28;20207;-63
2023/05/22 05:26:14;;;;;;;15.27;10.10;;;;;19.30;96056.00;;;;8350754;28;20794;-63
2023/05/22 05:30:19;;;;;;;19.25;10.10;;;;;19.40;96054.00;;;;8336056;28;20197;-63
2023/05/22 05:34:22;;;;;;;13.82;8.80;;;;;19.40;96054.00;;;;8349674;28;21902;-65
2023/05/22 05:38:27;;;;;;;14.88;9.82;;;;;19.40;96055.00;;;;8339935;28;20225;-64
2023/05/22 05:42:30;;;;;;;13.90;8.90;;;;;19.40;96060.00;;;;8343666;28;20203;-62
2023/05/22 05:46:35;;;;;;;14.65;9.55;;;;;19.50;96051.00;;;;8342736;28;20221;-63
2023/05/22 05:50:39;;;;;;;12.98;9.35;;;;;19.50;96055.00;;;;8350282;28;20743;-63
2023/05/22 05:54:46;;;;;;;13.20;8.88;;;;;19.60;96054.00;;;;8346498;28;20236;-64
2023/05/22 05:58:49;;;;;;;12.85;9.45;;;;;19.60;96063.00;;;;8348573;28;20830;-64
2023/05/22 06:02:54;;;;;;;13.45;9.32;;;;;19.50;96063.00;;;;8338855;28;20923;-63
2023/05/22 06:07:00;;;;;;;14.93;9.98;;;;;19.50;96064.00;;;;8342717;28;20205;-63
2023/05/22 06:11:05;;;;;;;15.30;9.40;;;;;19.80;96065.00;;;;8340327;28;20232;-63
2023/05/22 06:15:08;;;;;;;12.63;8.52;;;;;20.00;96069.00;;;;8327785;28;20926;-65
2023/05/22 06:19:12;;;;;;;16.20;9.35;;;;;20.10;96059.00;;;;8348668;28;20275;-64
2023/05/22 06:23:16;;;;;;;15.57;10.07;;;;;20.20;96062.00;;;;8342962;28;20272;-63
2023/05/22 06:27:22;;;;;;;16.02;9.57;;;;;20.50;96070.00;;;;8342634;28;20204;-64
2023/05/22 06:31:26;;;;;;;15.38;9.65;;;;;21.20;96076.00;;;;8346803;28;20231;-66
2023/05/22 06:35:33;;;;;;;13.88;9.25;;;;;22.00;96070.00;;;;8347418;28;20961;-62
2023/05/22 06:39:39;;;;;;;16.73;9.38;;;;;22.90;96070.00;;;;8339949;28;20200;-64
2023/05/22 06:43:50;;;;;;;14.45;9.38;;;;;23.30;96077.00;;;;8344078;28;20296;-66
2023/05/22 06:47:54;;;;;;;14.45;9.60;;;;;23.80;96069.00;;;;8337738;28;20719;-64
2023/05/22 06:52:02;;;;;;;19.23;9.07;;;;;24.30;96072.00;;;;8334748;28;20221;-64
2023/05/22 06:56:10;;;;;;;13.80;9.20;;;;;24.50;96076.00;;;;8345350;28;20696;-66
2023/05/22 07:00:18;;;;;;;12.98;9.27;;;;;24.80;96058.00;;;;8339455;28;20779;-64
2023/05/22 07:04:23;;;;;;;14.23;8.70;;;;;25.20;96074.00;;;;8342600;28;20228;-64
2023/05/22 07:08:29;;;;;;;13.20;9.02;;;;;25.80;96081.00;;;;8342388;28;20604;-65
2023/05/22 07:12:40;;;;;;;10.02;8.35;;;;;26.20;96080.00;;;;8341381;28;20216;-64
2023/05/22 07:16:45;;;;;;;10.65;7.85;;;;;26.80;96081.00;;;;8341207;28;20371;-66
2023/05/22 07:20:51;;;;;;;10.15;7.88;;;;;27.00;96081.00;;;;8338258;28;20201;-64
2023/05/22 07:24:54;;;;;;;12.55;8.50;;;;;26.90;96079.00;;;;8337115;28;20690;-64
2023/05/22 07:28:59;;;;;;;13.55;8.65;;;;;27.00;96078.00;;;;8338182;28;20688;-64
2023/05/22 07:33:03;;;;;;;12.60;9.07;;;;;27.40;96090.00;;;;8335680;28;20235;-65
2023/05/22 07:37:08;;;;;;;9.82;8.40;;;;;27.20;96086.00;;;;8329479;28;20197;-65
2023/05/22 07:41:18;;;;;;;14.90;8.02;;;;;27.50;96092.00;;;;8334268;28;20205;-64
2023/05/22 07:45:21;;;;;;;9.60;7.90;;;;;28.40;96088.00;;;;8335733;28;20220;-65
2023/05/22 07:49:29;;;;;;;13.40;8.27;;;;;28.80;96084.00;;;;8343771;28;20199;-64
2023/05/22 07:53:32;;;;;;;9.95;8.18;;;;;29.00;96083.00;;;;8345252;28;20271;-69
2023/05/22 07:57:38;;;;;;;8.70;7.80;;;;;28.20;96077.00;;;;8346477;28;20290;-64
2023/05/22 08:01:44;;;;;;;11.45;8.27;;;;;27.90;96084.00;;;;8337853;28;20225;-64
2023/05/22 08:05:52;;;;;;;11.27;8.20;;;;;28.10;96071.00;;;;8336419;28;20200;-64
2023/05/22 08:10:02;;;;;;;13.05;7.95;;;;;28.30;96078.00;;;;8340729;28;20291;-64
2023/05/22 08:14:06;;;;;;;10.48;8.10;;;;;28.40;96070.00;;;;8331959;28;20701;-64
2023/05/22 08:18:12;;;;;;;12.98;7.70;;;;;28.60;96074.00;;;;8332566;28;20205;-64
2023/05/22 08:22:17;;;;;;;12.40;7.80;;;;;29.10;96082.00;;;;8345401;28;20232;-64
2023/05/22 08:26:25;;;;;;;11.07;7.07;;;;;29.70;96085.00;;;;8344558;28;20216;-67
2023/05/22 08:30:29;;;;;;;12.32;7.57;;;;;29.90;96081.00;;;;8354189;28;20265;-64
2023/05/22 08:34:33;;;;;;;10.10;7.65;;;;;30.20;96085.00;;;;8352998;28;20229;-63
2023/05/22 08:38:37;;;;;;;12.90;7.13;;;;;30.10;96079.00;;;;8349907;28;20788;-64
2023/05/22 08:42:43;;;;;;;10.35;6.90;;;;;30.20;96083.00;;;;8347453;28;20220;-63
2023/05/22 08:46:47;;;;;;;11.77;7.10;;;;;30.60;96070.00;;;;8351515;28;20197;-64
2023/05/22 08:50:56;;;;;;;10.95;6.78;;;;;31.10;96072.00;;;;8348706;28;20204;-64
2023/05/22 08:55:03;;;;;;;8.50;6.75;;;;;31.50;96078.00;;;;8348241;28;20236;-63
2023/05/22 08:59:11;;;;;;;7.78;6.97;;;;;31.70;96074.00;;;;8348580;28;20901;-67
2023/05/22 09:03:15;;;;;;;9.52;6.78;;;;;32.00;96082.00;;;;8347176;28;20228;-64
2023/05/22 09:07:22;;;;;;;8.80;6.80;;;;;31.40;96070.00;;;;8348065;28;20235;-65
2023/05/22 09:11:27;;;;;;;16.10;6.63;;;;;30.90;96070.00;;;;8338123;28;20287;-67
2023/05/22 09:15:31;;;;;;;8.38;6.45;;;;;30.50;96069.00;;;;8333204;28;20630;-65
2023/05/22 09:19:34;;;;;;;7.45;6.43;;;;;30.60;96079.00;;;;8342108;28;20208;-64
2023/05/22 09:23:38;;;;;;;6.75;6.10;;;;;31.10;96077.00;;;;8347132;28;20204;-64
2023/05/22 09:27:48;;;;;;;7.70;6.25;;;;;31.70;96067.00;;;;8348354;28;20664;-64
2023/05/22 09:31:55;;;;;;;9.82;5.72;;;;;32.20;96076.00;;;;8348748;28;20193;-64
2023/05/22 09:35:59;;;;;;;8.55;6.00;;;;;32.80;96074.00;;;;8352694;28;20658;-63
2023/05/22 09:40:10;;;;;;;7.55;5.80;;;;;33.20;96083.00;;;;8349216;28;20197;-64
2023/05/22 09:44:17;;;;;;;6.00;5.40;;;;;33.90;96074.00;;;;8342844;28;20205;-64
2023/05/22 09:48:21;;;;;;;7.07;5.72;;;;;34.10;96085.00;;;;8342331;28;20201;-64
2023/05/22 09:52:27;;;;;;;6.65;5.93;;;;;34.30;96084.00;;;;8350679;28;20311;-64
2023/05/22 09:56:36;;;;;;;5.85;5.25;;;;;34.90;96080.00;;;;8358354;28;20207;-64
2023/05/22 10:00:46;;;;;;;9.18;6.50;;;;;35.10;96075.00;;;;8360158;28;20197;-64
2023/05/22 10:04:57;;;;;;;6.50;5.20;;;;;35.50;96077.00;;;;8355990;28;20228;-64
2023/05/22 10:09:04;;;;;;;7.35;5.53;;;;;35.70;96072.00;;;;8344752;28;20647;-66
2023/05/22 10:13:07;;;;;;;10.13;5.75;;;;;35.80;96071.00;;;;8350131;28;20224;-64
2023/05/22 10:17:15;;;;;;;6.93;5.65;;;;;35.90;96078.00;;;;8344105;28;20339;-64
2023/05/22 10:21:23;;;;;;;5.70;5.13;;;;;36.10;96074.00;;;;8343415;28;20196;-63
2023/05/22 10:25:29;;;;;;;7.93;5.25;;;;;36.00;96072.00;;;;8345614;28;20284;-64
2023/05/22 10:29:38;;;;;;;7.47;5.00;;;;;36.20;96068.00;;;;8343157;28;20624;-64
2023/05/22 10:33:48;;;;;;;9.50;5.50;;;;;36.50;96064.00;;;;8345145;28;20319;-64
2023/05/22 10:38:00;;;;;;;7.53;5.95;;;;;36.50;96057.00;;;;8344138;28;20193;-64
2023/05/22 10:42:03;;;;;;;6.68;5.40;;;;;36.30;96057.00;;;;8340211;28;20288;-65
2023/05/22 10:46:11;;;;;;;8.02;5.28;;;;;36.00;96047.00;;;;8345541;28;20201;-64
2023/05/22 10:50:18;;;;;;;5.97;5.38;;;;;36.40;96053.00;;;;8341993;28;20208;-65
2023/05/22 10:54:52;;;;;;;10.75;5.70;;;;;35.60;96041.00;;;;8340209;28;20231;-65
2023/05/22 10:58:57;;;;;;;8.90;5.43;;;;;35.80;96048.00;;;;8344161;28;20204;-64
2023/05/22 11:03:04;;;;;;;8.68;5.50;;;;;36.30;96051.00;;;;8346929;28;20407;-67
2023/05/22 11:07:23;;;;;;;7.00;4.80;;;;;36.30;96053.00;;;;8342731;28;20294;-65
2023/05/22 11:11:31;;;;;;;6.07;4.80;;;;;36.40;96043.00;;;;8343401;28;20240;-63
2023/05/22 11:15:34;;;;;;;4.60;4.20;;;;;36.30;96051.00;;;;8322658;28;20256;-65
2023/05/22 11:19:39;;;;;;;5.80;4.50;;;;;36.10;96042.00;;;;8346751;28;20200;-64
2023/05/22 11:23:45;;;;;;;5.85;4.65;;;;;35.90;96048.00;;;;8344290;28;20232;-64
2023/05/22 11:27:51;;;;;;;8.20;4.65;;;;;36.30;96033.00;;;;8351458;28;20660;-64
2023/05/22 11:31:54;;;;;;;7.85;4.50;;;;;36.60;96035.00;;;;8345203;28;20247;-64
2023/05/22 11:35:58;;;;;;;5.22;4.72;;;;;36.90;96039.00;;;;8326914;28;20230;-63
2023/05/22 11:40:04;;;;;;;5.68;4.40;;;;;37.10;96034.00;;;;8348567;28;20197;-64
2023/05/22 11:44:08;;;;;;;5.32;4.60;;;;;37.30;96028.00;;;;8347379;28;20570;-66
2023/05/22 11:48:13;;;;;;;5.18;4.68;;;;;37.70;96030.00;;;;8305500;28;20699;-64
2023/05/22 11:52:18;;;;;;;5.55;4.35;;;;;37.90;96027.00;;;;8332988;28;20525;-65
2023/05/22 11:56:22;;;;;;;10.57;5.07;;;;;38.10;96031.00;;;;8329447;28;20232;-65
2023/05/22 12:00:28;;;;;;;8.18;4.57;;;;;38.10;96031.00;;;;8344835;28;20274;-64
2023/05/22 12:04:32;;;;;;;8.82;5.07;;;;;38.50;96025.00;;;;8353424;28;20597;-67
2023/05/22 12:08:35;;;;;;;5.63;4.65;;;;;38.80;96026.00;;;;8344844;28;20291;-64
2023/05/22 12:12:40;;;;;;;6.57;4.78;;;;;38.80;96025.00;;;;8351256;28;20229;-64
2023/05/22 12:16:51;;;;;;;6.03;4.90;;;;;39.10;96027.00;;;;8351322;28;20283;-64
2023/05/22 12:20:55;;;;;;;5.35;4.80;;;;;38.80;96022.00;;;;8349266;28;20193;-65
2023/05/22 12:24:58;;;;;;;6.80;4.78;;;;;38.40;96015.00;;;;8354940;28;20848;-64
2023/05/22 12:29:05;;;;;;;6.90;4.90;;;;;37.90;96007.00;;;;8353626;28;20258;-64
2023/05/22 12:33:14;;;;;;;6.72;4.68;;;;;37.30;96012.00;;;;8352192;28;20752;-64
2023/05/22 12:37:23;;;;;;;9.20;5.22;;;;;36.50;96013.00;;;;8335978;28;20791;-65
2023/05/22 12:41:27;;;;;;;7.13;5.10;;;;;35.80;96011.00;;;;8353234;28;20200;-66
2023/05/22 12:45:33;;;;;;;7.35;4.88;;;;;35.30;96003.00;;;;8352215;28;20208;-64
2023/05/22 12:49:36;;;;;;;8.70;4.82;;;;;34.80;96004.00;;;;8349373;28;20204;-63
2023/05/22 12:53:42;;;;;;;7.88;5.00;;;;;34.40;96003.00;;;;8343742;28;20797;-65
2023/05/22 12:57:46;;;;;;;5.55;4.85;;;;;34.40;96003.00;;;;8350791;28;20752;-64
2023/05/22 13:02:00;;;;;;;8.45;5.32;;;;;34.40;95997.00;;;;8349547;28;20833;-64
2023/05/22 13:06:06;;;;;;;8.43;5.35;;;;;34.10;96005.00;;;;8349934;28;20601;-63
2023/05/22 13:10:10;;;;;;;6.80;4.97;;;;;34.00;95992.00;;;;8346793;28;20212;-64
2023/05/22 13:14:13;;;;;;;7.85;5.10;;;;;34.50;95996.00;;;;8352272;28;20255;-64
2023/05/22 13:18:20;;;;;;;10.57;5.50;;;;;34.90;95988.00;;;;8351826;28;20207;-64
2023/05/22 13:22:24;;;;;;;5.53;4.97;;;;;35.80;95989.00;;;;8349453;28;20222;-63
2023/05/22 13:26:29;;;;;;;8.32;5.22;;;;;36.30;95986.00;;;;8330484;28;20224;-65
2023/05/22 13:30:40;;;;;;;6.35;5.03;;;;;36.90;95982.00;;;;8352794;28;20573;-63
2023/05/22 13:34:45;;;;;;;6.13;4.63;;;;;37.40;95983.00;;;;8334717;28;20290;-63
2023/05/22 13:38:49;;;;;;;6.20;4.90;;;;;37.80;95983.00;;;;8334885;28;20287;-65
2023/05/22 13:42:52;;;;;;;11.48;4.65;;;;;37.80;95979.00;;;;8351948;28;20275;-64
2023/05/22 13:46:57;;;;;;;6.47;5.20;;;;;38.10;95979.00;;;;8353727;28;20740;-64
2023/05/22 13:51:04;;;;;;;7.43;4.88;;;;;38.70;95970.00;;;;8351382;28;20598;-64
2023/05/22 13:55:10;;;;;;;6.85;4.90;;;;;38.80;95975.00;;;;8348282;28;20229;-65
2023/05/22 13:59:13;;;;;;;6.53;4.85;;;;;38.90;95970.00;;;;8332914;28;20732;-63
2023/05/22 14:03:17;;;;;;;7.05;4.63;;;;;38.80;95975.00;;;;8346487;28;20234;-64
2023/05/22 14:07:21;;;;;;;6.40;4.30;;;;;38.80;95967.00;;;;8350502;28;20232;-63
2023/05/22 14:11:28;;;;;;;6.95;5.18;;;;;39.00;95973.00;;;;8342018;28;20201;-63
2023/05/22 14:15:32;;;;;;;10.68;4.75;;;;;39.00;95967.00;;;;8344676;28;20715;-65
2023/05/22 14:19:35;;;;;;;8.05;4.88;;;;;39.20;95966.00;;;;8349565;28;20788;-64
2023/05/22 14:23:41;;;;;;;4.60;4.13;;;;;39.40;95967.00;;;;8336269;28;20205;-63
2023/05/22 14:27:44;;;;;;;7.05;4.70;;;;;39.30;95957.00;;;;8334304;28;20206;-63
2023/05/22 14:31:52;;;;;;;9.23;4.88;;;;;39.20;95964.00;;;;8333662;28;20236;-64
2023/05/22 14:35:58;;;;;;;13.60;4.90;;;;;39.20;95962.00;;;;8348588;28;20251;-65
2023/05/22 14:40:02;;;;;;;7.25;4.57;;;;;39.10;95955.00;;;;8338588;28;20193;-63
2023/05/22 14:44:13;;;;;;;9.25;5.13;;;;;39.00;95953.00;;;;8343058;28;20257;-64
2023/05/22 14:48:17;;;;;;;5.90;4.68;;;;;38.70;95952.00;;;;8338489;28;20189;-63
2023/05/22 14:52:22;;;;;;;4.65;4.20;;;;;38.80;95947.00;;;;8345968;28;20204;-64
2023/05/22 14:56:30;;;;;;;4.55;4.15;;;;;38.80;95944.00;;;;8337346;28;20189;-65
2023/05/22 15:00:33;;;;;;;6.40;4.55;;;;;39.20;95947.00;;;;8339108;28;20665;-63
2023/05/22 15:04:40;;;;;;;7.40;4.38;;;;;39.20;95947.00;;;;8347622;28;20232;-63
2023/05/22 15:08:45;;;;;;;4.82;4.38;;;;;39.10;95944.00;;;;8344818;28;20192;-63
2023/05/22 15:12:55;;;;;;;5.40;4.25;;;;;39.10;95943.00;;;;8344458;28;20296;-63
2023/05/22 15:17:00;;;;;;;5.75;4.47;;;;;38.80;95944.00;;;;8346976;28;20228;-63
2023/05/22 15:21:03;;;;;;;4.60;4.20;;;;;39.00;95947.00;;;;8347633;28;20283;-63
2023/05/22 15:25:10;;;;;;;4.65;4.10;;;;;39.00;95942.00;;;;8344324;28;20706;-63
2023/05/22 15:29:15;;;;;;;5.95;4.85;;;;;38.80;95935.00;;;;8344332;28;20185;-62
2023/05/22 15:33:19;;;;;;;5.20;4.07;;;;;38.70;95932.00;;;;8345951;28;20216;-62
2023/05/22 16:31:20;;;;;;;5.00;4.40;;;;;37.50;95916.00;;;;8320863;28;20863;-76
2023/05/22 16:45:20;;;;;;;7.78;4.63;;;;;36.10;95919.00;;;;8804248;22;20587;-68
2023/05/22 16:49:33;;;;;;;6.50;4.72;;;;;36.00;95915.00;;;;8253260;28;20207;-63
2023/05/22 16:53:37;;;;;;;5.10;4.60;;;;;35.90;95915.00;;;;8250988;28;20751;-66
2023/05/22 16:57:41;;;;;;;6.00;4.90;;;;;36.00;95918.00;;;;8248184;28;20321;-64
2023/05/22 17:01:45;;;;;;;5.05;4.55;;;;;36.20;95918.00;;;;8252801;28;20206;-64
2023/05/22 17:05:50;;;;;;;4.13;3.83;;;;;36.40;95917.00;;;;8251626;28;20683;-63
2023/05/22 17:09:56;;;;;;;5.85;5.00;;;;;36.60;95909.00;;;;8253061;28;20728;-65
2023/05/22 17:14:00;;;;;;;5.78;4.70;;;;;36.80;95908.00;;;;8252359;28;20211;-67
2023/05/22 17:18:04;;;;;;;5.13;4.63;;;;;37.00;95909.00;;;;8254048;28;20735;-63
2023/05/22 17:22:10;;;;;;;10.63;4.65;;;;;36.90;95913.00;;;;8252451;28;20210;-68
2023/05/22 17:26:16;;;;;;;5.88;4.72;;;;;36.70;95915.00;;;;8248399;28;20321;-64
2023/05/22 17:30:22;;;;;;;7.32;4.70;;;;;36.50;95916.00;;;;8242683;28;20258;-64
2023/05/22 17:34:25;;;;;;;7.15;4.57;;;;;36.50;95914.00;;;;8245049;28;20226;-64
2023/05/22 17:38:31;;;;;;;5.00;4.50;;;;;36.40;95911.00;;;;8242930;28;20754;-65
2023/05/22 17:42:34;;;;;;;5.45;4.90;;;;;36.30;95903.00;;;;8248297;28;20787;-65
2023/05/22 17:46:39;;;;;;;5.28;4.72;;;;;35.70;95904.00;;;;8243159;28;20241;-65
2023/05/22 17:50:46;;;;;;;8.05;4.93;;;;;35.00;95916.00;;;;8242329;28;20211;-67
2023/05/22 17:54:50;;;;;;;6.47;4.90;;;;;34.10;95908.00;;;;8244990;28;20211;-64
2023/05/22 17:58:54;;;;;;;5.32;4.82;;;;;33.00;95916.00;;;;8246285;28;21032;-62
2023/05/22 18:03:00;;;;;;;6.10;5.25;;;;;31.60;95918.00;;;;8241499;28;20877;-64
2023/05/22 18:07:03;;;;;;;5.07;4.57;;;;;30.30;95918.00;;;;8249049;28;20237;-62
2023/05/22 18:11:08;;;;;;;5.88;5.28;;;;;29.20;95917.00;;;;8246683;28;20221;-64
2023/05/22 18:15:13;;;;;;;6.72;5.30;;;;;28.20;95908.00;;;;8244081;28;20257;-66
2023/05/22 18:19:16;;;;;;;6.45;5.45;;;;;27.40;95916.00;;;;8250006;28;20199;-64
2023/05/22 18:23:22;;;;;;;9.18;5.65;;;;;26.70;95915.00;;;;8246259;28;20656;-66
2023/05/22 18:27:30;;;;;;;10.13;5.28;;;;;26.00;95913.00;;;;8242545;28;20317;-63
2023/05/22 18:31:33;;;;;;;12.18;5.63;;;;;25.40;95905.00;;;;8232672;28;20217;-65
2023/05/22 18:35:42;;;;;;;14.85;6.20;;;;;24.80;95911.00;;;;8250890;28;20301;-64
2023/05/22 18:39:45;;;;;;;9.13;6.05;;;;;24.20;95906.00;;;;8236633;28;20195;-65
2023/05/22 18:43:56;;;;;;;9.35;5.43;;;;;23.70;95907.00;;;;8242027;28;20239;-66
2023/05/22 18:48:04;;;;;;;10.70;5.78;;;;;23.20;95911.00;;;;8241569;28;20234;-66
2023/05/22 18:52:15;;;;;;;10.23;5.50;;;;;22.70;95910.00;;;;8238295;28;20235;-68
2023/05/22 18:56:18;;;;;;;8.40;6.07;;;;;22.40;95906.00;;;;8249552;28;20211;-65
2023/05/22 19:00:29;;;;;;;9.15;6.80;;;;;22.10;95899.00;;;;8248727;28;20203;-66
2023/05/22 19:04:32;;;;;;;11.45;6.82;;;;;21.70;95905.00;;;;8250904;28;20210;-64
2023/05/22 19:08:36;;;;;;;9.93;6.60;;;;;21.40;95916.00;;;;8234589;28;20242;-66
2023/05/22 19:12:39;;;;;;;6.95;6.25;;;;;21.10;95922.00;;;;8247345;28;20258;-67
2023/05/22 19:16:48;;;;;;;8.80;6.97;;;;;20.80;95926.00;;;;8246206;28;20595;-63
2023/05/22 19:20:52;;;;;;;9.85;7.00;;;;;20.60;95929.00;;;;8246085;28;20254;-70
2023/05/22 19:24:56;;;;;;;9.77;6.60;;;;;20.40;95933.00;;;;8244528;28;20689;-66
2023/05/22 19:29:02;;;;;;;10.13;6.68;;;;;20.10;95929.00;;;;8246908;28;20207;-65
2023/05/22 19:33:07;;;;;;;11.20;7.32;;;;;19.80;95941.00;;;;8239480;28;20237;-65
2023/05/22 19:37:13;;;;;;;10.40;7.20;;;;;19.60;95938.00;;;;8251534;28;20261;-65
2023/05/22 19:41:16;;;;;;;12.20;7.13;;;;;19.40;95940.00;;;;8243841;28;20234;-66
2023/05/22 19:45:19;;;;;;;12.48;7.10;;;;;19.20;95939.00;;;;8251355;28;20238;-69
2023/05/22 19:49:30;;;;;;;12.50;7.70;;;;;19.10;95940.00;;;;8241162;28;20225;-64
2023/05/22 19:53:34;;;;;;;9.65;6.72;;;;;18.90;95945.00;;;;8240342;28;20645;-67
2023/05/22 19:57:37;;;;;;;11.23;7.47;;;;;18.80;95950.00;;;;8240460;28;20318;-64
2023/05/22 20:01:43;;;;;;;9.63;6.93;;;;;18.70;95950.00;;;;8245515;28;20203;-65
2023/05/22 20:05:50;;;;;;;9.40;7.53;;;;;18.50;95951.00;;;;8248379;28;20673;-66
2023/05/22 20:09:58;;;;;;;9.68;7.03;;;;;18.20;95951.00;;;;8220398;28;20533;-70
2023/05/22 20:14:02;;;;;;;10.13;7.50;;;;;18.10;95953.00;;;;8245434;28;20203;-67
2023/05/22 20:18:05;;;;;;;8.90;7.47;;;;;18.00;95948.00;;;;8242959;28;20202;-64
2023/05/22 20:22:09;;;;;;;10.38;7.93;;;;;17.90;95953.00;;;;8243490;28;20209;-64
2023/05/22 20:26:13;;;;;;;9.95;8.00;;;;;17.90;95953.00;;;;8248257;28;20227;-66
2023/05/22 20:30:17;;;;;;;13.90;8.40;;;;;17.80;95960.00;;;;8247723;28;20254;-65
2023/05/22 20:34:27;;;;;;;11.77;7.47;;;;;17.60;95953.00;;;;8248349;28;20233;-65
2023/05/22 20:38:33;;;;;;;17.13;8.15;;;;;17.50;95948.00;;;;8251375;28;20706;-66
2023/05/22 20:42:36;;;;;;;15.20;9.45;;;;;17.40;95954.00;;;;8251185;28;20738;-65
2023/05/22 20:46:39;;;;;;;8.43;7.45;;;;;17.30;95959.00;;;;8254334;28;20273;-65
2023/05/22 20:50:49;;;;;;;12.18;8.52;;;;;17.20;95959.00;;;;8236877;28;20648;-65
2023/05/22 20:54:53;;;;;;;12.88;8.18;;;;;17.20;95954.00;;;;8238783;28;20210;-68
2023/05/22 20:58:56;;;;;;;11.05;8.32;;;;;17.10;95948.00;;;;8252263;28;20569;-64
2023/05/22 21:03:00;;;;;;;16.95;8.40;;;;;17.00;95952.00;;;;8253807;28;20707;-66
2023/05/22 21:07:07;;;;;;;13.85;9.10;;;;;16.80;95952.00;;;;8251085;28;20235;-66
2023/05/22 21:11:14;;;;;;;18.40;9.55;;;;;16.60;95946.00;;;;8252547;28;20203;-67
2023/05/22 21:15:17;;;;;;;12.70;8.98;;;;;16.50;95956.00;;;;8248360;28;20203;-66
2023/05/22 21:19:21;;;;;;;14.77;9.00;;;;;16.50;95943.00;;;;8251966;28;20293;-67
2023/05/22 21:23:26;;;;;;;11.88;8.93;;;;;16.50;95952.00;;;;8253611;28;20207;-65